createdAt,value
2023-05-17T00:01:46.156Z,9.30
2023-05-17T00:04:13.423Z,9.20
2023-05-17T00:06:41.067Z,9.30
2023-05-17T00:09:07.987Z,9.20
2023-05-17T00:11:35.077Z,9.30
2023-05-17T00:14:02.230Z,9.30
2023-05-17T00:16:29.101Z,9.20
2023-05-17T00:18:55.991Z,9.10
2023-05-17T00:21:22.944Z,9.10
2023-05-17T00:23:49.789Z,9.00
2023-05-17T00:26:16.717Z,9.00
2023-05-17T00:28:43.575Z,9.00
2023-05-17T00:31:10.548Z,9.00
2023-05-17T00:33:37.448Z,9.00
2023-05-17T00:36:04.717Z,9.10
2023-05-17T00:38:31.507Z,9.10
2023-05-17T00:40:58.357Z,8.90
2023-05-17T00:43:26.198Z,8.90
2023-05-17T00:45:53.078Z,8.90
2023-05-17T00:48:25.798Z,8.80
2023-05-17T00:50:56.748Z,8.60
2023-05-17T00:53:24.228Z,8.60
2023-05-17T00:55:51.326Z,8.70
2023-05-17T00:58:18.206Z,8.60
2023-05-17T01:00:45.650Z,8.60
2023-05-17T01:03:12.628Z,8.60
2023-05-17T01:05:39.735Z,8.70
2023-05-17T01:08:06.623Z,8.70
2023-05-17T01:10:39.963Z,8.70
2023-05-17T01:13:18.506Z,8.80
2023-05-17T01:15:56.887Z,8.80
2023-05-17T01:18:41.357Z,8.70
2023-05-17T01:21:35.977Z,8.80
2023-05-17T01:24:30.388Z,8.70
2023-05-17T01:26:59.270Z,8.80
2023-05-17T01:29:29.735Z,8.80
2023-05-17T01:31:58.675Z,8.70
2023-05-17T01:34:26.788Z,8.70
2023-05-17T01:36:53.869Z,8.70
2023-05-17T01:39:20.761Z,8.60
2023-05-17T01:42:01.235Z,8.60
2023-05-17T01:44:28.124Z,8.60
2023-05-17T01:47:02.378Z,8.60
2023-05-17T01:49:38.367Z,8.50
2023-05-17T01:52:09.443Z,8.50
2023-05-17T01:55:02.240Z,8.60
2023-05-17T01:57:32.566Z,8.70
2023-05-17T02:00:01.844Z,8.60
2023-05-17T02:02:28.809Z,8.50
2023-05-17T02:04:55.937Z,8.50
2023-05-17T02:07:22.836Z,8.40
2023-05-17T02:09:49.787Z,8.30
2023-05-17T02:12:16.610Z,8.40
2023-05-17T02:14:43.501Z,8.30
2023-05-17T02:17:10.449Z,8.20
2023-05-17T02:19:37.303Z,8.20
2023-05-17T02:22:04.173Z,8.20
2023-05-17T02:24:30.996Z,8.20
2023-05-17T02:26:58.047Z,8.20
2023-05-17T02:29:25.051Z,8.10
2023-05-17T02:31:51.889Z,8.20
2023-05-17T02:34:18.708Z,8.10
2023-05-17T02:36:45.617Z,8.10
2023-05-17T02:39:12.760Z,8.00
2023-05-17T02:41:39.681Z,8.00
2023-05-17T02:44:06.824Z,8.00
2023-05-17T02:46:34.869Z,8.00
2023-05-17T02:49:03.344Z,8.00
2023-05-17T02:51:30.951Z,7.90
2023-05-17T02:53:57.900Z,7.80
2023-05-17T02:56:24.856Z,7.80
2023-05-17T02:58:51.714Z,7.70
2023-05-17T03:01:18.487Z,7.70
2023-05-17T03:03:45.743Z,7.90
2023-05-17T03:06:12.853Z,8.10
2023-05-17T03:08:40.373Z,8.10
2023-05-17T03:11:07.454Z,8.20
2023-05-17T03:13:34.385Z,8.10
2023-05-17T03:16:01.329Z,8.00
2023-05-17T03:18:28.641Z,7.90
2023-05-17T03:20:55.876Z,7.80
2023-05-17T03:23:22.721Z,7.80
2023-05-17T03:25:49.663Z,7.90
2023-05-17T03:28:16.496Z,7.90
2023-05-17T03:30:43.437Z,7.80
2023-05-17T03:33:10.717Z,7.80
2023-05-17T03:35:37.672Z,7.90
2023-05-17T03:38:04.532Z,7.80
2023-05-17T03:40:31.506Z,7.70
2023-05-17T03:42:58.571Z,7.60
2023-05-17T03:45:27.201Z,7.70
2023-05-17T03:47:54.361Z,7.70
2023-05-17T03:50:21.258Z,7.60
2023-05-17T03:52:48.100Z,7.50
2023-05-17T03:55:15.003Z,7.50
2023-05-17T03:57:42.017Z,7.50
2023-05-17T04:00:10.747Z,7.40
2023-05-17T04:02:38.071Z,7.40
2023-05-17T04:05:05.558Z,7.30
2023-05-17T04:07:32.545Z,7.40
2023-05-17T04:09:59.556Z,7.40
2023-05-17T04:12:26.685Z,7.40
2023-05-17T04:14:53.573Z,7.50
2023-05-17T04:17:20.886Z,7.30
2023-05-17T04:19:47.821Z,7.40
2023-05-17T04:22:14.701Z,7.40
2023-05-17T04:24:41.571Z,7.50
2023-05-17T04:27:08.485Z,7.60
2023-05-17T04:29:35.633Z,7.60
2023-05-17T04:32:02.602Z,7.80
2023-05-17T04:34:31.864Z,7.80
2023-05-17T04:36:59.117Z,7.90
2023-05-17T04:39:26.056Z,8.00
2023-05-17T04:41:52.875Z,8.10
2023-05-17T04:44:19.759Z,8.30
2023-05-17T04:46:46.625Z,8.30
2023-05-17T04:49:14.193Z,8.40
2023-05-17T04:51:41.052Z,8.60
2023-05-17T04:54:08.730Z,8.70
2023-05-17T04:56:36.513Z,8.80
2023-05-17T04:59:04.105Z,8.90
2023-05-17T05:01:31.004Z,9.00
2023-05-17T05:03:58.973Z,9.10
2023-05-17T05:06:25.937Z,9.30
2023-05-17T05:08:53.069Z,9.40
2023-05-17T05:11:19.909Z,9.60
2023-05-17T05:13:46.835Z,9.70
2023-05-17T05:16:13.706Z,9.80
2023-05-17T05:18:41.208Z,9.90
2023-05-17T05:21:08.197Z,10.00
2023-05-17T05:23:35.136Z,10.20
2023-05-17T05:26:04.703Z,10.20
2023-05-17T05:28:31.672Z,10.30
2023-05-17T05:31:00.307Z,10.40
2023-05-17T05:33:27.358Z,10.50
2023-05-17T05:35:54.483Z,10.50
2023-05-17T05:38:21.395Z,10.70
2023-05-17T05:40:50.434Z,10.70
2023-05-17T05:43:17.602Z,10.90
2023-05-17T05:45:49.335Z,11.00
2023-05-17T05:48:17.405Z,11.20
2023-05-17T05:50:45.102Z,11.60
2023-05-17T05:53:18.954Z,12.30
2023-05-17T05:55:46.854Z,13.10
2023-05-17T05:58:14.980Z,14.00
2023-05-17T06:00:41.917Z,14.60
2023-05-17T06:03:09.091Z,14.80
2023-05-17T06:05:36.275Z,14.90
2023-05-17T06:08:03.381Z,15.80
2023-05-17T06:10:34.107Z,16.20
2023-05-17T06:13:03.483Z,16.80
2023-05-17T06:15:31.869Z,16.80
2023-05-17T06:17:59.114Z,17.30
2023-05-17T06:20:26.284Z,17.50
2023-05-17T06:22:53.372Z,17.40
2023-05-17T06:25:20.327Z,17.50
2023-05-17T06:27:47.478Z,17.60
2023-05-17T06:30:14.668Z,17.10
2023-05-17T06:32:42.581Z,17.50
2023-05-17T06:35:10.167Z,17.90
2023-05-17T06:37:37.222Z,18.60
2023-05-17T06:40:15.016Z,19.20
2023-05-17T06:42:43.048Z,19.90
2023-05-17T06:45:10.973Z,20.70
2023-05-17T06:47:37.972Z,20.70
2023-05-17T06:50:05.512Z,20.50
2023-05-17T06:52:32.566Z,20.50
2023-05-17T06:54:59.444Z,20.90
2023-05-17T06:57:26.587Z,20.90
2023-05-17T06:59:53.435Z,20.80
2023-05-17T07:02:20.373Z,20.50
2023-05-17T07:04:47.313Z,21.00
2023-05-17T07:07:14.244Z,21.00
2023-05-17T07:09:41.596Z,21.30
2023-05-17T07:12:08.519Z,22.00
2023-05-17T07:14:35.571Z,22.00
2023-05-17T07:17:02.533Z,22.10
2023-05-17T07:19:29.514Z,21.90
2023-05-17T07:21:56.409Z,22.00
2023-05-17T07:24:23.396Z,22.00
2023-05-17T07:26:52.292Z,21.80
2023-05-17T07:29:19.614Z,22.00
2023-05-17T07:31:46.614Z,22.10
2023-05-17T07:34:16.504Z,21.80
2023-05-17T07:36:46.438Z,21.00
2023-05-17T07:39:13.456Z,21.10
2023-05-17T07:41:51.611Z,20.00
2023-05-17T07:44:18.715Z,20.10
2023-05-17T07:46:45.665Z,21.10
2023-05-17T07:49:15.121Z,22.60
2023-05-17T07:51:41.975Z,23.70
2023-05-17T07:54:08.996Z,23.30
2023-05-17T07:56:36.087Z,23.30
2023-05-17T07:59:04.256Z,23.30
2023-05-17T08:01:33.518Z,23.10
2023-05-17T08:04:00.519Z,23.10
2023-05-17T08:06:29.034Z,23.50
2023-05-17T08:08:58.920Z,24.40
2023-05-17T08:11:26.159Z,23.50
2023-05-17T08:13:53.517Z,23.30
2023-05-17T08:16:23.047Z,23.70
2023-05-17T08:18:50.749Z,24.50
2023-05-17T08:21:20.162Z,24.20
2023-05-17T08:23:47.537Z,24.40
2023-05-17T08:26:15.403Z,25.20
2023-05-17T08:28:45.969Z,26.20
2023-05-17T08:31:15.447Z,26.20
2023-05-17T08:33:42.991Z,25.40
2023-05-17T08:36:11.405Z,25.80
2023-05-17T08:38:38.829Z,26.20
2023-05-17T08:41:06.507Z,25.70
2023-05-17T08:43:34.813Z,25.50
2023-05-17T08:46:04.215Z,25.30
2023-05-17T08:48:32.145Z,26.50
2023-05-17T08:51:00.455Z,25.90
2023-05-17T08:53:29.005Z,24.70
2023-05-17T08:56:02.130Z,25.50
2023-05-17T09:36:26.660Z,25.70
2023-05-17T09:41:50.336Z,23.40
2023-05-17T09:44:17.430Z,22.40
2023-05-17T09:46:49.062Z,21.40
2023-05-17T09:49:17.702Z,21.20
2023-05-17T09:51:52.708Z,20.60
2023-05-17T10:19:57.392Z,22.00
2023-05-17T10:22:24.895Z,23.00
2023-05-17T10:24:52.091Z,22.70
2023-05-17T10:27:20.882Z,22.90
2023-05-17T10:29:50.741Z,23.80
2023-05-17T10:32:19.997Z,24.80
2023-05-17T10:34:58.018Z,24.30
2023-05-17T10:37:34.420Z,24.30
2023-05-17T10:40:04.565Z,24.40
2023-05-17T10:42:35.472Z,23.70
2023-05-17T10:45:02.478Z,21.70
2023-05-17T10:47:34.117Z,21.30
2023-05-17T10:50:01.925Z,21.60
2023-05-17T10:52:29.066Z,22.40
2023-05-17T10:54:59.556Z,22.60
2023-05-17T10:57:51.061Z,22.30
2023-05-17T11:00:22.128Z,22.60
2023-05-17T11:02:50.682Z,23.60
2023-05-17T11:05:25.665Z,23.90
2023-05-17T11:07:52.880Z,24.20
2023-05-17T11:10:20.106Z,23.40
2023-05-17T11:12:54.333Z,22.10
2023-05-17T11:15:28.321Z,21.90
2023-05-17T11:17:58.268Z,21.80
2023-05-17T11:20:25.400Z,22.40
2023-05-17T11:23:18.924Z,22.50
2023-05-17T11:25:54.233Z,22.70
2023-05-17T11:28:23.642Z,23.10
2023-05-17T11:30:56.539Z,23.40
2023-05-17T11:33:39.221Z,23.90
2023-05-17T11:36:14.437Z,22.60
2023-05-17T11:38:42.778Z,22.10
2023-05-17T11:43:52.291Z,22.90
2023-05-17T11:46:21.900Z,21.80
2023-05-17T11:48:51.806Z,20.60
2023-05-17T11:51:21.313Z,20.30
2023-05-17T11:53:50.480Z,20.10
2023-05-17T11:56:19.292Z,19.90
2023-05-17T11:58:54.012Z,19.60
2023-05-17T12:01:21.620Z,19.70
2023-05-17T12:03:57.448Z,19.80
2023-05-17T12:06:25.612Z,20.20
2023-05-17T12:08:52.593Z,20.40
2023-05-17T12:11:20.332Z,21.10
2023-05-17T12:13:52.284Z,20.90
2023-05-17T12:16:22.878Z,20.90
2023-05-17T12:18:51.814Z,20.80
2023-05-17T12:21:21.747Z,20.60
2023-05-17T12:23:52.945Z,20.50
2023-05-17T12:26:22.466Z,20.80
2023-05-17T12:28:58.700Z,21.40
2023-05-17T12:34:14.622Z,20.60
2023-05-17T12:36:42.403Z,20.10
2023-05-17T12:39:12.320Z,20.00
2023-05-17T12:41:40.897Z,20.60
2023-05-17T12:44:15.532Z,20.70
2023-05-17T12:46:43.629Z,19.90
2023-05-17T12:49:12.287Z,19.60
2023-05-17T12:51:46.333Z,19.60
2023-05-17T12:54:17.457Z,20.20
2023-05-17T12:56:45.581Z,21.10
2023-05-17T12:59:15.841Z,21.00
2023-05-17T13:01:43.569Z,20.40
2023-05-17T13:04:11.132Z,19.90
2023-05-17T13:06:48.102Z,19.70
2023-05-17T13:09:16.140Z,19.70
2023-05-17T13:11:43.340Z,20.10
2023-05-17T13:14:14.019Z,20.40
2023-05-17T13:16:41.343Z,20.30
2023-05-17T13:19:14.956Z,20.10
2023-05-17T13:21:42.016Z,19.90
2023-05-17T13:24:12.000Z,19.60
2023-05-17T13:26:39.169Z,19.80
2023-05-17T13:29:06.429Z,19.90
2023-05-17T13:31:33.806Z,19.20
2023-05-17T13:34:01.063Z,18.80
2023-05-17T13:36:28.129Z,18.30
2023-05-17T13:38:57.153Z,18.10
2023-05-17T13:41:24.989Z,17.90
2023-05-17T13:43:52.091Z,17.60
2023-05-17T13:46:19.159Z,17.50
2023-05-17T13:48:46.154Z,17.30
2023-05-17T13:51:13.424Z,17.00
2023-05-17T13:53:41.602Z,16.70
2023-05-17T13:56:08.613Z,16.40
2023-05-17T13:58:35.516Z,16.30
2023-05-17T14:01:02.510Z,16.20
2023-05-17T14:03:29.452Z,16.00
2023-05-17T14:05:56.529Z,16.10
2023-05-17T14:08:23.507Z,16.10
2023-05-17T14:10:50.451Z,16.10
2023-05-17T14:13:20.447Z,15.80
2023-05-17T14:15:47.732Z,15.60
2023-05-17T14:18:15.035Z,15.60
2023-05-17T14:20:42.014Z,15.60
2023-05-17T14:23:08.995Z,15.60
2023-05-17T14:25:40.057Z,15.60
2023-05-17T14:28:07.127Z,15.70
2023-05-17T14:30:34.456Z,15.60
2023-05-17T14:33:02.178Z,15.30
2023-05-17T14:35:48.974Z,15.40
2023-05-17T14:41:09.357Z,15.80
2023-05-17T14:43:38.816Z,15.80
2023-05-17T14:46:09.007Z,15.80
2023-05-17T14:48:36.311Z,16.00
2023-05-17T14:51:05.371Z,16.00
2023-05-17T14:53:32.564Z,15.80
2023-05-17T14:55:59.719Z,15.90
2023-05-17T14:58:28.229Z,15.80
2023-05-17T15:01:05.536Z,15.90
2023-05-17T15:03:35.306Z,15.90
2023-05-17T15:06:08.861Z,15.90
2023-05-17T15:08:40.892Z,15.90
2023-05-17T15:11:09.794Z,15.90
2023-05-17T15:13:39.318Z,16.10
2023-05-17T15:16:07.830Z,16.10
2023-05-17T15:18:44.690Z,16.10
2023-05-17T15:21:14.255Z,16.20
2023-05-17T15:23:42.289Z,16.40
2023-05-17T15:26:09.430Z,16.90
2023-05-17T15:28:36.328Z,17.30
2023-05-17T15:31:10.609Z,17.50
2023-05-17T15:33:43.514Z,17.50
2023-05-17T15:36:13.107Z,17.30
2023-05-17T15:38:40.155Z,16.90
2023-05-17T15:41:14.415Z,16.70
2023-05-17T15:43:42.428Z,16.50
2023-05-17T15:46:12.563Z,16.40
2023-05-17T15:48:39.685Z,16.20
2023-05-17T15:51:19.274Z,16.30
2023-05-17T15:53:48.258Z,16.40
2023-05-17T15:56:17.643Z,16.50
2023-05-17T15:58:44.576Z,16.40
2023-05-17T16:01:12.111Z,16.60
2023-05-17T16:03:39.036Z,16.60
2023-05-17T16:06:07.762Z,16.50
2023-05-17T16:08:34.717Z,16.50
2023-05-17T16:11:02.870Z,16.40
2023-05-17T16:13:30.395Z,16.40
2023-05-17T16:15:58.244Z,16.30
2023-05-17T16:18:25.312Z,16.10
2023-05-17T16:21:05.264Z,16.20
2023-05-17T16:23:32.907Z,16.20
2023-05-17T16:26:00.040Z,16.00
2023-05-17T16:28:26.948Z,16.20
2023-05-17T16:30:54.414Z,16.40
2023-05-17T16:33:21.635Z,16.70
2023-05-17T16:35:49.295Z,16.50
2023-05-17T16:38:16.979Z,16.60
2023-05-17T16:40:44.163Z,16.30
2023-05-17T16:43:15.784Z,16.20
2023-05-17T16:45:44.338Z,16.00
2023-05-17T16:48:15.216Z,15.80
2023-05-17T16:50:42.329Z,15.70
2023-05-17T16:53:09.340Z,15.80
2023-05-17T16:55:36.711Z,15.50
2023-05-17T16:58:03.814Z,15.30
2023-05-17T17:00:31.506Z,15.50
2023-05-17T17:02:59.575Z,15.40
2023-05-17T17:05:29.967Z,15.60
2023-05-17T17:07:57.702Z,15.80
2023-05-17T17:10:24.487Z,15.80
2023-05-17T17:12:56.397Z,15.70
2023-05-17T17:15:23.776Z,15.50
2023-05-17T17:17:53.718Z,15.40
2023-05-17T17:20:20.751Z,15.30
2023-05-17T17:22:51.167Z,15.10
2023-05-17T17:25:19.136Z,15.10
2023-05-17T17:27:47.188Z,15.10
2023-05-17T17:30:14.604Z,15.10
2023-05-17T17:32:41.612Z,15.30
2023-05-17T17:35:11.811Z,15.30
2023-05-17T17:37:38.775Z,15.30
2023-05-17T17:40:06.495Z,15.30
2023-05-17T17:42:33.541Z,15.10
2023-05-17T17:45:01.350Z,14.90
2023-05-17T17:47:28.306Z,14.90
2023-05-17T17:49:55.696Z,14.80
2023-05-17T17:52:22.555Z,14.90
2023-05-17T17:54:49.424Z,14.70
2023-05-17T17:57:18.848Z,14.60
2023-05-17T17:59:48.941Z,14.70
2023-05-17T18:02:15.824Z,14.70
2023-05-17T18:04:42.927Z,14.70
2023-05-17T18:07:10.083Z,14.70
2023-05-17T18:09:37.191Z,14.70
2023-05-17T18:12:04.328Z,14.70
2023-05-17T18:14:31.449Z,14.60
2023-05-17T18:16:58.408Z,14.60
2023-05-17T18:19:25.619Z,14.70
2023-05-17T18:21:55.092Z,14.50
2023-05-17T18:24:22.147Z,14.40
2023-05-17T18:27:14.358Z,14.40
2023-05-17T18:29:42.096Z,14.30
2023-05-17T18:32:09.799Z,14.10
2023-05-17T18:34:37.047Z,14.10
2023-05-17T18:37:04.766Z,14.00
2023-05-17T18:39:32.525Z,13.90
2023-05-17T18:41:59.697Z,13.70
2023-05-17T18:44:29.825Z,13.60
2023-05-17T18:46:57.174Z,13.50
2023-05-17T18:49:27.080Z,13.30
2023-05-17T18:51:54.210Z,13.30
2023-05-17T18:54:21.325Z,13.20
2023-05-17T18:56:56.596Z,13.20
2023-05-17T18:59:23.401Z,13.20
2023-05-17T19:01:50.376Z,13.10
2023-05-17T19:04:17.203Z,13.20
2023-05-17T19:06:44.651Z,13.10
2023-05-17T19:09:11.640Z,13.10
2023-05-17T19:11:38.593Z,13.10
2023-05-17T19:14:05.757Z,13.00
2023-05-17T19:16:32.657Z,13.00
2023-05-17T19:18:59.629Z,13.10
2023-05-17T19:21:26.712Z,13.00
2023-05-17T19:23:53.663Z,13.00
2023-05-17T19:26:21.657Z,12.90
2023-05-17T19:28:48.590Z,12.80
2023-05-17T19:31:15.608Z,12.80
2023-05-17T19:33:42.843Z,12.70
2023-05-17T19:36:09.740Z,12.60
2023-05-17T19:38:36.581Z,12.60
2023-05-17T19:41:03.422Z,12.60
2023-05-17T19:43:32.945Z,12.50
2023-05-17T19:45:59.957Z,12.40
2023-05-17T19:48:26.997Z,12.30
2023-05-17T19:50:56.640Z,12.30
2023-05-17T19:53:23.890Z,12.30
2023-05-17T19:55:50.816Z,12.20
2023-05-17T19:58:18.246Z,12.30
2023-05-17T20:00:45.129Z,12.30
2023-05-17T20:03:14.117Z,12.30
2023-05-17T20:05:41.511Z,12.20
2023-05-17T20:08:09.914Z,12.20
2023-05-17T20:10:37.192Z,12.20
2023-05-17T20:13:04.203Z,12.10
2023-05-17T20:15:31.432Z,12.10
2023-05-17T20:17:58.790Z,12.10
2023-05-17T20:20:27.701Z,12.20
2023-05-17T20:22:55.034Z,12.20
2023-05-17T20:25:22.119Z,12.30
2023-05-17T20:27:48.987Z,12.30
2023-05-17T20:30:16.045Z,12.30
2023-05-17T20:32:43.440Z,12.30
2023-05-17T20:35:10.916Z,12.10
2023-05-17T20:37:37.884Z,12.20
2023-05-17T20:40:09.288Z,12.10
2023-05-17T20:42:37.959Z,12.10
2023-05-17T20:45:05.529Z,12.10
2023-05-17T20:47:32.729Z,12.10
2023-05-17T20:49:59.899Z,12.10
2023-05-17T20:52:38.787Z,12.10
2023-05-17T20:55:12.234Z,11.90
2023-05-17T20:57:39.197Z,12.10
2023-05-17T21:00:09.789Z,12.00
2023-05-17T21:02:47.687Z,11.90
2023-05-17T21:05:14.958Z,11.90
2023-05-17T21:07:42.105Z,11.80
2023-05-17T21:10:09.531Z,11.90
2023-05-17T21:12:39.002Z,11.90
2023-05-17T21:15:16.501Z,11.90
2023-05-17T21:17:44.431Z,11.90
2023-05-17T21:20:11.916Z,11.80
2023-05-17T21:22:40.959Z,11.80
2023-05-17T21:25:08.236Z,11.80
2023-05-17T21:27:35.479Z,11.70
2023-05-17T21:30:02.553Z,11.60
2023-05-17T21:32:32.479Z,11.60
2023-05-17T21:35:03.417Z,11.60
2023-05-17T21:37:32.800Z,11.60
2023-05-17T21:39:59.738Z,11.60
2023-05-17T21:42:26.722Z,11.70
2023-05-17T21:44:59.091Z,11.70
2023-05-17T21:47:26.402Z,11.70
2023-05-17T21:49:53.490Z,11.80
2023-05-17T21:52:20.413Z,11.60
2023-05-17T21:54:47.556Z,11.70
2023-05-17T21:57:14.761Z,11.60
2023-05-17T21:59:46.797Z,11.60
2023-05-17T22:02:20.147Z,11.50
2023-05-17T22:04:51.516Z,11.60
2023-05-17T22:07:19.571Z,11.50
2023-05-17T22:09:47.126Z,11.50
2023-05-17T22:12:14.917Z,11.40
2023-05-17T22:14:44.577Z,11.40
2023-05-17T22:17:17.804Z,11.40
2023-05-17T22:19:47.084Z,11.40
2023-05-17T22:22:20.361Z,11.40
2023-05-17T22:24:50.889Z,11.30
2023-05-17T22:27:18.180Z,11.30
2023-05-17T22:29:46.206Z,11.20
2023-05-17T22:32:13.429Z,11.10
2023-05-17T22:34:44.790Z,11.00
2023-05-17T22:37:12.420Z,11.00
2023-05-17T22:39:41.113Z,10.80
2023-05-17T22:42:09.260Z,10.80
2023-05-17T22:44:37.175Z,10.70
2023-05-17T22:47:05.070Z,10.70
2023-05-17T22:49:37.928Z,10.70
2023-05-17T22:52:05.933Z,10.60
2023-05-17T22:54:37.140Z,10.50
2023-05-17T22:57:04.976Z,10.40
2023-05-17T22:59:33.085Z,10.50
2023-05-17T23:02:02.866Z,10.60
2023-05-17T23:04:30.400Z,10.60
2023-05-17T23:07:03.935Z,10.60
2023-05-17T23:09:33.152Z,10.60
2023-05-17T23:12:06.429Z,10.80
2023-05-17T23:14:40.092Z,10.70
2023-05-17T23:17:06.993Z,10.80
2023-05-17T23:19:43.012Z,10.80
2023-05-17T23:22:11.981Z,10.80
2023-05-17T23:24:39.550Z,10.90
2023-05-17T23:27:10.304Z,10.90
2023-05-17T23:29:41.825Z,11.00
2023-05-17T23:32:09.125Z,11.10
2023-05-17T23:34:36.542Z,11.00
2023-05-17T23:37:03.501Z,11.00
2023-05-17T23:39:30.640Z,11.00
2023-05-17T23:41:58.271Z,11.00
2023-05-17T23:44:26.216Z,11.00
2023-05-17T23:47:05.081Z,10.90
2023-05-17T23:49:32.107Z,11.00
2023-05-17T23:51:59.108Z,11.10
2023-05-17T23:54:29.245Z,11.20
2023-05-17T23:56:56.841Z,11.10
2023-05-17T23:59:26.666Z,11.10
